createdAt,value
2018-12-30T00:00:38.851Z,84.47
2018-12-30T00:03:06.551Z,65.50
2018-12-30T00:05:34.230Z,58.85
2018-12-30T00:08:01.516Z,69.90
2018-12-30T00:10:28.827Z,72.82
2018-12-30T00:12:56.112Z,50.60
2018-12-30T00:15:23.791Z,52.43
2018-12-30T00:17:51.103Z,47.95
2018-12-30T00:20:18.378Z,97.85
2018-12-30T00:22:45.686Z,71.25
2018-12-30T00:25:12.971Z,62.70
2018-12-30T00:27:40.264Z,54.25
2018-12-30T00:30:08.282Z,50.50
2018-12-30T00:32:35.569Z,49.25
2018-12-30T00:35:02.867Z,41.13
2018-12-30T00:37:30.145Z,40.12
2018-12-30T00:39:57.430Z,57.43
2018-12-30T00:42:24.734Z,84.22
2018-12-30T00:44:52.315Z,83.10
2018-12-30T00:47:19.594Z,94.85
2018-12-30T00:49:46.904Z,100.25
2018-12-30T00:52:14.185Z,118.05
2018-12-30T00:54:41.501Z,127.85
2018-12-30T00:57:08.792Z,126.85
2018-12-30T00:59:36.084Z,126.67
2018-12-30T01:02:03.387Z,124.97
2018-12-30T01:04:30.669Z,126.02
2018-12-30T01:06:57.974Z,125.40
2018-12-30T01:09:25.300Z,126.12
2018-12-30T01:11:52.643Z,117.87
2018-12-30T01:14:20.027Z,130.82
2018-12-30T01:16:47.611Z,131.87
2018-12-30T01:19:14.923Z,129.27
2018-12-30T01:21:42.205Z,116.57
2018-12-30T01:24:09.490Z,108.92
2018-12-30T01:26:36.804Z,98.45
2018-12-30T01:29:04.110Z,109.30
2018-12-30T01:31:31.798Z,100.70
2018-12-30T01:33:59.082Z,102.00
2018-12-30T01:36:26.395Z,114.95
2018-12-30T01:38:53.680Z,105.05
2018-12-30T01:41:20.967Z,95.92
2018-12-30T01:43:48.284Z,111.35
2018-12-30T01:46:17.206Z,99.22
2018-12-30T01:48:44.502Z,91.60
2018-12-30T01:51:11.786Z,87.00
2018-12-30T01:53:39.101Z,90.72
2018-12-30T01:56:06.394Z,73.45
2018-12-30T01:58:33.679Z,71.12
2018-12-30T02:01:01.283Z,76.15
2018-12-30T02:03:28.572Z,76.55
2018-12-30T02:05:55.884Z,72.17
2018-12-30T02:08:23.164Z,78.55
2018-12-30T02:10:50.443Z,67.15
2018-12-30T02:13:17.756Z,74.53
2018-12-30T02:15:45.234Z,85.95
2018-12-30T02:18:12.517Z,74.50
2018-12-30T02:20:39.818Z,74.65
2018-12-30T02:23:07.099Z,71.97
2018-12-30T02:25:34.382Z,69.67
2018-12-30T02:28:01.683Z,74.72
2018-12-30T02:30:28.982Z,80.22
2018-12-30T02:32:56.297Z,80.28
2018-12-30T02:35:23.581Z,70.40
2018-12-30T02:37:50.891Z,72.62
2018-12-30T02:40:18.265Z,68.37
2018-12-30T02:42:45.948Z,79.53
2018-12-30T02:45:13.251Z,67.05
2018-12-30T02:47:40.536Z,79.85
2018-12-30T02:50:07.815Z,92.60
2018-12-30T02:52:35.127Z,72.50
2018-12-30T02:55:02.417Z,67.05
2018-12-30T02:57:29.895Z,95.28
2018-12-30T02:59:57.199Z,75.62
2018-12-30T03:02:24.504Z,84.37
2018-12-30T03:04:51.779Z,78.85
2018-12-30T03:07:19.098Z,72.15
2018-12-30T03:09:46.675Z,76.45
2018-12-30T03:12:13.959Z,73.70
2018-12-30T03:14:41.273Z,69.95
2018-12-30T03:17:08.561Z,77.22
2018-12-30T03:19:35.872Z,68.90
2018-12-30T03:22:03.156Z,58.30
2018-12-30T03:24:30.443Z,69.07
2018-12-30T03:26:57.743Z,64.05
2018-12-30T03:29:25.027Z,57.75
2018-12-30T03:31:52.332Z,70.90
2018-12-30T03:34:19.608Z,62.53
2018-12-30T03:36:46.881Z,73.70
2018-12-30T03:39:14.119Z,83.03
2018-12-30T03:41:41.407Z,82.90
2018-12-30T03:44:08.691Z,73.15
2018-12-30T03:46:36.014Z,85.15
2018-12-30T03:49:03.293Z,93.85
2018-12-30T03:51:31.097Z,82.47
2018-12-30T03:53:58.398Z,83.90
2018-12-30T03:56:25.707Z,89.65
2018-12-30T03:58:52.982Z,93.60
2018-12-30T04:01:20.201Z,84.80
2018-12-30T04:03:47.507Z,76.67
2018-12-30T04:06:14.792Z,87.88
2018-12-30T04:08:42.079Z,76.50
2018-12-30T04:11:09.374Z,93.47
2018-12-30T04:13:36.590Z,61.65
2018-12-30T04:16:03.886Z,55.60
2018-12-30T04:18:31.176Z,48.13
2018-12-30T04:20:58.461Z,45.85
2018-12-30T04:23:25.758Z,44.55
2018-12-30T04:25:52.958Z,31.60
2018-12-30T04:28:20.194Z,32.45
2018-12-30T04:30:47.484Z,28.27
2018-12-30T04:33:14.769Z,34.53
2018-12-30T04:35:42.075Z,30.65
2018-12-30T04:38:09.354Z,26.90
2018-12-30T04:40:36.636Z,32.85
2018-12-30T04:43:03.956Z,33.40
2018-12-30T04:45:31.259Z,35.65
2018-12-30T04:47:58.541Z,25.20
2018-12-30T04:50:25.820Z,33.80
2018-12-30T04:52:53.133Z,29.98
2018-12-30T04:55:20.407Z,29.02
2018-12-30T04:57:47.619Z,28.52
2018-12-30T05:00:14.933Z,23.95
2018-12-30T05:02:42.220Z,21.95
2018-12-30T05:05:09.513Z,19.60
2018-12-30T05:07:36.823Z,19.48
2018-12-30T05:10:04.675Z,23.15
2018-12-30T05:12:31.950Z,13.15
2018-12-30T05:14:59.261Z,19.32
2018-12-30T05:17:26.545Z,14.33
2018-12-30T05:19:53.828Z,13.83
2018-12-30T05:22:21.139Z,12.98
2018-12-30T05:24:48.411Z,12.37
2018-12-30T05:27:15.620Z,10.82
2018-12-30T05:29:42.923Z,11.75
2018-12-30T05:32:10.199Z,9.88
2018-12-30T05:34:37.470Z,12.45
2018-12-30T05:37:04.706Z,12.23
2018-12-30T05:39:31.982Z,9.30
2018-12-30T05:41:59.255Z,10.25
2018-12-30T05:44:26.546Z,10.63
2018-12-30T05:46:53.830Z,9.38
2018-12-30T05:49:21.119Z,9.38
2018-12-30T05:51:48.386Z,8.83
2018-12-30T05:54:15.682Z,13.20
2018-12-30T05:56:42.956Z,7.85
2018-12-30T05:59:10.234Z,7.95
2018-12-30T06:01:37.522Z,8.65
2018-12-30T06:04:04.719Z,8.83
2018-12-30T06:06:31.990Z,7.53
2018-12-30T06:08:59.290Z,9.05
2018-12-30T06:11:26.563Z,8.10
2018-12-30T06:13:53.771Z,12.07
2018-12-30T06:16:21.066Z,12.70
2018-12-30T06:18:48.274Z,7.78
2018-12-30T06:21:15.537Z,6.95
2018-12-30T06:23:42.839Z,8.98
2018-12-30T06:26:10.129Z,7.45
2018-12-30T06:28:37.404Z,7.58
2018-12-30T06:31:04.721Z,9.18
2018-12-30T06:33:31.992Z,10.18
2018-12-30T06:35:59.270Z,10.60
2018-12-30T06:38:26.572Z,13.48
2018-12-30T06:40:53.843Z,9.18
2018-12-30T06:43:21.062Z,7.28
2018-12-30T06:45:48.336Z,8.88
2018-12-30T06:48:15.620Z,11.45
2018-12-30T06:50:42.975Z,8.80
2018-12-30T06:53:10.182Z,8.73
2018-12-30T06:55:37.496Z,7.80
2018-12-30T06:58:04.772Z,8.20
2018-12-30T07:00:32.040Z,6.20
2018-12-30T07:02:59.342Z,11.08
2018-12-30T07:05:26.543Z,16.80
2018-12-30T07:07:53.810Z,9.23
2018-12-30T07:10:21.026Z,7.08
2018-12-30T07:12:48.303Z,6.95
2018-12-30T07:15:15.608Z,5.62
2018-12-30T07:17:42.879Z,8.73
2018-12-30T07:20:10.156Z,9.38
2018-12-30T07:22:37.454Z,6.12
2018-12-30T07:25:04.731Z,6.25
2018-12-30T07:27:32.003Z,14.83
2018-12-30T07:29:59.301Z,9.13
2018-12-30T07:32:26.506Z,10.53
2018-12-30T07:34:53.784Z,10.43
2018-12-30T07:37:21.079Z,7.00
2018-12-30T07:39:48.351Z,7.00
2018-12-30T07:42:15.622Z,7.55
2018-12-30T07:44:42.915Z,9.73
2018-12-30T07:47:10.187Z,7.67
2018-12-30T07:49:37.556Z,11.22
2018-12-30T07:52:04.832Z,11.33
2018-12-30T07:54:32.117Z,8.23
2018-12-30T07:56:59.413Z,11.28
2018-12-30T07:59:26.696Z,5.50
2018-12-30T08:01:53.991Z,6.37
2018-12-30T08:04:21.271Z,7.75
2018-12-30T08:06:48.551Z,6.05
2018-12-30T08:09:15.849Z,8.38
2018-12-30T08:11:43.118Z,9.00
2018-12-30T08:14:10.427Z,10.30
2018-12-30T08:16:37.704Z,6.70
2018-12-30T08:19:04.971Z,6.97
2018-12-30T08:21:32.192Z,5.58
2018-12-30T08:23:59.463Z,10.75
2018-12-30T08:26:26.683Z,8.68
2018-12-30T08:28:53.885Z,5.28
2018-12-30T08:31:21.191Z,11.45
2018-12-30T08:33:48.480Z,8.33
2018-12-30T08:36:15.756Z,8.23
2018-12-30T08:38:43.040Z,8.10
2018-12-30T08:41:10.345Z,11.28
2018-12-30T08:43:37.610Z,9.78
2018-12-30T08:46:04.821Z,12.07
2018-12-30T08:48:32.239Z,6.55
2018-12-30T08:50:59.530Z,8.40
2018-12-30T08:53:29.420Z,17.10
2018-12-30T08:55:55.743Z,7.78
2018-12-30T08:58:23.050Z,7.03
2018-12-30T09:00:50.357Z,7.70
2018-12-30T09:03:17.654Z,6.35
2018-12-30T09:05:44.928Z,9.00
2018-12-30T09:08:12.203Z,13.35
2018-12-30T09:10:39.503Z,6.05
2018-12-30T09:13:06.803Z,5.58
2018-12-30T09:15:34.195Z,5.55
2018-12-30T09:18:01.464Z,6.80
2018-12-30T09:20:28.807Z,6.17
2018-12-30T09:22:56.088Z,9.50
2018-12-30T09:25:23.360Z,8.65
2018-12-30T09:27:50.669Z,5.58
2018-12-30T09:30:18.858Z,9.30
2018-12-30T09:32:46.168Z,5.97
2018-12-30T09:35:13.482Z,4.75
2018-12-30T09:37:40.684Z,7.40
2018-12-30T09:40:07.985Z,5.75
2018-12-30T09:42:35.269Z,9.48
2018-12-30T09:45:02.571Z,11.20
2018-12-30T09:47:29.780Z,7.55
2018-12-30T09:49:57.038Z,6.45
2018-12-30T09:52:24.350Z,12.20
2018-12-30T09:54:51.611Z,8.90
2018-12-30T09:57:18.905Z,12.93
2018-12-30T09:59:46.190Z,6.67
2018-12-30T10:02:13.424Z,7.50
2018-12-30T10:04:40.701Z,9.23
2018-12-30T10:07:07.971Z,4.50
2018-12-30T10:09:35.275Z,9.03
2018-12-30T10:12:02.553Z,10.00
2018-12-30T10:14:29.837Z,9.55
2018-12-30T10:16:57.139Z,11.10
2018-12-30T10:19:24.423Z,13.58
2018-12-30T10:21:51.694Z,7.42
2018-12-30T10:24:18.924Z,6.20
2018-12-30T10:26:46.204Z,6.28
2018-12-30T10:29:13.516Z,19.50
2018-12-30T10:31:40.815Z,5.12
2018-12-30T10:34:08.025Z,4.58
2018-12-30T10:36:35.313Z,11.48
2018-12-30T10:39:04.084Z,8.93
2018-12-30T10:41:31.353Z,7.70
2018-12-30T10:43:58.636Z,8.23
2018-12-30T10:46:25.947Z,6.72
2018-12-30T10:48:53.228Z,6.35
2018-12-30T10:51:20.504Z,9.18
2018-12-30T10:53:47.799Z,7.25
2018-12-30T10:56:15.076Z,11.48
2018-12-30T10:58:42.270Z,6.45
2018-12-30T11:01:09.496Z,13.00
2018-12-30T11:03:36.771Z,9.05
2018-12-30T11:06:04.087Z,7.65
2018-12-30T11:08:31.369Z,10.20
2018-12-30T11:10:58.680Z,7.85
2018-12-30T11:13:25.991Z,6.03
2018-12-30T11:15:53.258Z,17.42
2018-12-30T11:18:20.500Z,7.50
2018-12-30T11:20:47.767Z,8.25
2018-12-30T11:23:15.075Z,10.15
2018-12-30T11:25:42.367Z,9.63
2018-12-30T11:28:09.931Z,4.85
2018-12-30T11:30:37.364Z,8.03
2018-12-30T11:33:04.683Z,6.47
2018-12-30T11:35:32.306Z,5.42
2018-12-30T11:37:59.794Z,12.03
2018-12-30T11:40:27.199Z,6.72
2018-12-30T11:42:54.458Z,5.15
2018-12-30T11:45:21.764Z,8.10
2018-12-30T11:47:49.058Z,7.37
2018-12-30T11:50:16.330Z,4.90
2018-12-30T11:52:43.548Z,11.88
2018-12-30T11:55:10.850Z,6.67
2018-12-30T11:57:38.119Z,7.42
2018-12-30T12:00:06.763Z,4.87
2018-12-30T12:02:34.054Z,9.33
2018-12-30T12:05:01.251Z,4.12
2018-12-30T12:07:28.556Z,6.12
2018-12-30T12:09:55.835Z,6.20
2018-12-30T12:12:23.135Z,12.78
2018-12-30T12:14:50.411Z,4.60
2018-12-30T12:17:17.692Z,4.58
2018-12-30T12:19:44.986Z,5.75
2018-12-30T12:22:12.263Z,7.92
2018-12-30T12:24:39.532Z,3.85
2018-12-30T12:27:06.848Z,8.98
2018-12-30T12:29:34.271Z,5.50
2018-12-30T12:32:01.535Z,6.30
2018-12-30T12:34:28.825Z,9.50
2018-12-30T12:36:56.111Z,7.58
2018-12-30T12:39:23.399Z,6.83
2018-12-30T12:41:50.599Z,4.83
2018-12-30T12:44:17.885Z,6.72
2018-12-30T12:46:45.193Z,5.92
2018-12-30T12:49:12.468Z,5.35
2018-12-30T12:51:39.759Z,5.50
2018-12-30T12:54:07.034Z,7.08
2018-12-30T12:56:34.315Z,4.70
2018-12-30T12:59:01.586Z,12.75
2018-12-30T13:01:28.803Z,4.72
2018-12-30T13:03:56.099Z,8.83
2018-12-30T13:06:23.446Z,14.68
2018-12-30T13:08:50.688Z,10.23
2018-12-30T13:11:17.974Z,6.53
2018-12-30T13:13:45.245Z,7.17
2018-12-30T13:16:12.539Z,8.83
2018-12-30T13:18:39.816Z,7.58
2018-12-30T13:21:07.087Z,6.33
2018-12-30T13:23:34.396Z,12.10
2018-12-30T13:26:01.670Z,4.33
2018-12-30T13:28:28.976Z,6.50
2018-12-30T13:30:56.292Z,12.03
2018-12-30T13:33:23.586Z,9.10
2018-12-30T13:35:50.789Z,7.95
2018-12-30T13:38:18.068Z,5.83
2018-12-30T13:40:45.369Z,8.05
2018-12-30T13:43:12.644Z,5.30
2018-12-30T13:45:39.923Z,9.35
2018-12-30T13:48:07.219Z,6.12
2018-12-30T13:50:34.483Z,6.50
2018-12-30T13:53:01.793Z,8.98
2018-12-30T13:55:29.058Z,5.95
2018-12-30T13:57:56.255Z,6.05
2018-12-30T14:00:23.554Z,8.58
2018-12-30T14:02:50.755Z,7.47
2018-12-30T14:05:18.036Z,7.42
2018-12-30T14:07:45.332Z,7.00
2018-12-30T14:10:12.610Z,11.97
2018-12-30T14:12:39.960Z,8.80
2018-12-30T14:15:07.274Z,15.10
2018-12-30T14:17:34.546Z,5.22
2018-12-30T14:20:01.827Z,8.50
2018-12-30T14:22:29.227Z,7.10
2018-12-30T14:24:56.511Z,6.20
2018-12-30T14:27:23.786Z,6.60
2018-12-30T14:29:51.087Z,4.97
2018-12-30T14:32:18.361Z,9.10
2018-12-30T14:34:45.634Z,7.22
2018-12-30T14:37:12.948Z,4.97
2018-12-30T14:39:40.219Z,8.73
2018-12-30T14:42:07.490Z,9.43
2018-12-30T14:44:34.717Z,6.97
2018-12-30T14:47:01.992Z,6.78
2018-12-30T14:49:29.289Z,7.67
2018-12-30T14:51:56.563Z,6.87
2018-12-30T14:54:23.842Z,6.87
2018-12-30T14:56:51.131Z,7.62
2018-12-30T14:59:18.411Z,8.23
2018-12-30T15:01:45.718Z,12.70
2018-12-30T15:04:12.990Z,13.80
2018-12-30T15:06:40.189Z,7.87
2018-12-30T15:09:07.550Z,18.62
2018-12-30T15:11:34.774Z,14.23
2018-12-30T15:14:02.059Z,19.87
2018-12-30T15:16:29.340Z,10.70
2018-12-30T15:18:56.639Z,10.85
2018-12-30T15:21:23.912Z,11.28
2018-12-30T15:23:51.223Z,9.00
2018-12-30T15:26:18.487Z,8.90
2018-12-30T15:28:47.126Z,8.45
2018-12-30T15:31:14.562Z,13.13
2018-12-30T15:33:41.772Z,13.35
2018-12-30T15:36:09.050Z,15.60
2018-12-30T15:38:36.356Z,8.13
2018-12-30T15:41:03.635Z,9.38
2018-12-30T15:43:30.914Z,7.92
2018-12-30T15:45:58.234Z,11.55
2018-12-30T15:48:25.436Z,10.65
2018-12-30T15:50:52.716Z,15.00
2018-12-30T15:53:20.021Z,11.75
2018-12-30T15:55:47.294Z,13.45
2018-12-30T15:58:14.524Z,9.80
2018-12-30T16:00:41.795Z,8.30
2018-12-30T16:03:09.079Z,12.63
2018-12-30T16:05:36.383Z,15.75
2018-12-30T16:08:03.658Z,10.63
2018-12-30T16:10:30.940Z,9.23
2018-12-30T16:12:58.238Z,11.08
2018-12-30T16:15:25.452Z,9.18
2018-12-30T16:17:52.723Z,15.48
2018-12-30T16:20:19.947Z,14.30
2018-12-30T16:22:47.239Z,11.68
2018-12-30T16:25:14.473Z,11.25
2018-12-30T16:27:41.756Z,10.88
2018-12-30T16:30:09.603Z,10.20
2018-12-30T16:32:36.908Z,13.22
2018-12-30T16:35:04.186Z,13.22
2018-12-30T16:37:31.483Z,14.10
2018-12-30T16:39:58.697Z,25.37
2018-12-30T16:42:25.971Z,11.05
2018-12-30T16:44:53.288Z,13.75
2018-12-30T16:47:20.558Z,14.30
2018-12-30T16:49:47.774Z,18.12
2018-12-30T16:52:15.076Z,15.32
2018-12-30T16:54:42.365Z,21.90
2018-12-30T16:57:09.676Z,17.87
2018-12-30T16:59:36.983Z,16.30
2018-12-30T17:02:04.269Z,21.02
2018-12-30T17:04:31.556Z,13.83
2018-12-30T17:06:58.863Z,15.23
2018-12-30T17:09:26.206Z,20.37
2018-12-30T17:11:53.524Z,21.73
2018-12-30T17:14:20.807Z,13.08
2018-12-30T17:16:48.087Z,15.58
2018-12-30T17:19:15.392Z,14.07
2018-12-30T17:21:42.663Z,18.45
2018-12-30T17:24:09.945Z,26.48
2018-12-30T17:26:37.255Z,17.73
2018-12-30T17:29:04.530Z,24.57
2018-12-30T17:31:31.748Z,19.17
2018-12-30T17:33:59.054Z,23.70
2018-12-30T17:36:26.334Z,24.35
2018-12-30T17:38:53.615Z,23.38
2018-12-30T17:41:20.925Z,22.70
2018-12-30T17:43:48.227Z,22.67
2018-12-30T17:46:18.387Z,21.48
2018-12-30T17:48:44.477Z,26.23
2018-12-30T17:51:11.787Z,21.65
2018-12-30T17:53:39.070Z,20.95
2018-12-30T17:56:07.262Z,31.68
2018-12-30T17:58:34.759Z,19.23
2018-12-30T18:01:02.056Z,23.75
2018-12-30T18:03:29.334Z,23.40
2018-12-30T18:05:56.563Z,14.45
2018-12-30T18:08:23.878Z,20.52
2018-12-30T18:10:51.160Z,20.90
2018-12-30T18:13:18.443Z,22.07
2018-12-30T18:15:45.825Z,18.77
2018-12-30T18:18:13.103Z,17.23
2018-12-30T18:20:40.384Z,17.73
2018-12-30T18:23:07.705Z,21.15
2018-12-30T18:25:34.979Z,19.80
2018-12-30T18:28:02.359Z,15.50
2018-12-30T18:30:29.663Z,17.27
2018-12-30T18:32:56.950Z,24.82
2018-12-30T18:35:24.248Z,19.48
2018-12-30T18:37:51.532Z,15.18
2018-12-30T18:40:18.826Z,24.60
2018-12-30T18:42:46.067Z,19.50
2018-12-30T18:45:13.347Z,22.02
2018-12-30T18:47:40.642Z,18.42
2018-12-30T18:50:08.655Z,21.25
2018-12-30T18:52:35.943Z,24.23
2018-12-30T18:55:03.229Z,24.65
2018-12-30T18:57:30.538Z,21.45
2018-12-30T18:59:57.815Z,14.85
2018-12-30T19:02:25.091Z,18.35
2018-12-30T19:04:52.394Z,19.45
2018-12-30T19:07:19.690Z,24.98
2018-12-30T19:09:46.986Z,18.73
2018-12-30T19:12:14.195Z,22.58
2018-12-30T19:14:41.471Z,21.57
2018-12-30T19:17:08.790Z,17.50
2018-12-30T19:19:36.079Z,16.85
2018-12-30T19:22:03.363Z,15.80
2018-12-30T19:24:30.723Z,21.50
2018-12-30T19:26:57.993Z,17.17
2018-12-30T19:29:25.287Z,19.20
2018-12-30T19:31:52.593Z,15.88
2018-12-30T19:34:19.872Z,18.35
2018-12-30T19:36:47.177Z,14.95
2018-12-30T19:39:14.464Z,17.55
2018-12-30T19:41:41.746Z,16.40
2018-12-30T19:44:09.047Z,17.52
2018-12-30T19:46:36.355Z,23.55
2018-12-30T19:49:03.630Z,14.58
2018-12-30T19:51:30.911Z,13.85
2018-12-30T19:53:58.223Z,15.65
2018-12-30T19:56:25.496Z,15.45
2018-12-30T19:58:52.771Z,18.73
2018-12-30T20:01:20.072Z,14.10
2018-12-30T20:03:47.403Z,16.97
2018-12-30T20:06:14.702Z,15.88
2018-12-30T20:08:41.979Z,13.88
2018-12-30T20:11:09.376Z,16.02
2018-12-30T20:13:36.710Z,14.95
2018-12-30T20:16:03.926Z,21.02
2018-12-30T20:18:31.251Z,14.30
2018-12-30T20:20:58.540Z,21.27
2018-12-30T20:23:25.828Z,14.58
2018-12-30T20:25:53.131Z,20.10
2018-12-30T20:28:20.415Z,15.00
2018-12-30T20:30:47.708Z,16.52
2018-12-30T20:33:15.003Z,20.90
2018-12-30T20:35:42.220Z,15.28
2018-12-30T20:38:09.514Z,16.20
2018-12-30T20:40:36.818Z,13.40
2018-12-30T20:43:04.097Z,18.60
2018-12-30T20:45:31.315Z,12.47
2018-12-30T20:47:58.627Z,18.48
2018-12-30T20:50:25.907Z,15.93
2018-12-30T20:52:53.200Z,17.67
2018-12-30T20:55:20.507Z,16.57
2018-12-30T20:57:47.792Z,14.63
2018-12-30T21:00:15.502Z,19.15
2018-12-30T21:02:42.999Z,22.62
2018-12-30T21:05:10.269Z,19.85
2018-12-30T21:07:37.511Z,14.78
2018-12-30T21:10:05.864Z,15.00
2018-12-30T21:12:33.169Z,19.32
2018-12-30T21:15:00.450Z,18.45
2018-12-30T21:17:27.667Z,13.53
2018-12-30T21:19:54.962Z,15.00
2018-12-30T21:22:22.173Z,15.55
2018-12-30T21:24:49.459Z,15.05
2018-12-30T21:27:16.767Z,11.97
2018-12-30T21:29:44.054Z,14.68
2018-12-30T21:32:11.326Z,27.98
2018-12-30T21:34:38.627Z,13.18
2018-12-30T21:37:05.852Z,18.02
2018-12-30T21:39:33.127Z,17.67
2018-12-30T21:42:00.441Z,13.93
2018-12-30T21:44:27.726Z,12.28
2018-12-30T21:46:54.994Z,16.93
2018-12-30T21:49:22.218Z,15.65
2018-12-30T21:51:49.425Z,12.95
2018-12-30T21:54:16.710Z,13.68
2018-12-30T21:56:44.018Z,15.85
2018-12-30T21:59:11.299Z,19.90
2018-12-30T22:01:38.601Z,17.98
2018-12-30T22:04:05.899Z,15.85
2018-12-30T22:06:33.251Z,20.40
2018-12-30T22:09:00.566Z,19.12
2018-12-30T22:11:27.859Z,18.20
2018-12-30T22:13:55.138Z,19.35
2018-12-30T22:16:22.459Z,14.60
2018-12-30T22:18:49.724Z,18.65
2018-12-30T22:21:17.035Z,15.63
2018-12-30T22:23:44.310Z,17.85
2018-12-30T22:26:11.590Z,19.35
2018-12-30T22:28:38.911Z,19.57
2018-12-30T22:31:06.187Z,18.35
2018-12-30T22:33:33.472Z,17.25
2018-12-30T22:36:00.779Z,20.40
2018-12-30T22:38:28.146Z,14.05
2018-12-30T22:40:55.386Z,12.98
2018-12-30T22:43:22.671Z,16.35
2018-12-30T22:45:49.961Z,13.08
2018-12-30T22:48:17.267Z,10.98
2018-12-30T22:50:44.491Z,16.02
2018-12-30T22:53:11.771Z,14.80
2018-12-30T22:55:39.075Z,16.57
2018-12-30T22:58:06.359Z,16.23
2018-12-30T23:00:53.632Z,14.23
2018-12-30T23:03:20.919Z,16.55
2018-12-30T23:05:48.201Z,15.35
2018-12-30T23:08:15.500Z,13.80
2018-12-30T23:10:43.368Z,17.80
2018-12-30T23:13:10.658Z,16.27
2018-12-30T23:15:37.860Z,14.15
2018-12-30T23:18:05.245Z,15.65
2018-12-30T23:20:32.557Z,16.50
2018-12-30T23:22:59.842Z,15.93
2018-12-30T23:25:27.128Z,22.27
2018-12-30T23:27:54.440Z,15.88
2018-12-30T23:30:21.739Z,15.08
2018-12-30T23:32:49.041Z,12.33
2018-12-30T23:35:16.379Z,16.87
2018-12-30T23:37:43.586Z,14.70
2018-12-30T23:40:10.867Z,21.40
2018-12-30T23:42:38.180Z,24.60
2018-12-30T23:45:05.467Z,17.30
2018-12-30T23:47:32.752Z,13.05
2018-12-30T23:50:00.244Z,13.83
2018-12-30T23:52:27.507Z,13.95
2018-12-30T23:54:54.722Z,14.70
2018-12-30T23:57:22.032Z,18.55
2018-12-30T23:59:49.315Z,15.48
